Time;durP1;ratioP1;P1;durP2;ratioP2;P2;SDS_P1;SDS_P2;PMS_P1;PMS_P2;Temp;Humidity;BMP_temperature;BMP_pressure;BME280_temperature;BME280_humidity;BME280_pressure;Samples;Min_cycle;Max_cycle;Signal;HPM_P1;HPM_P2
2021/03/14 00:01:05;;;;;;;9.20;1.60;;;;;;;;;;4376323;32;20196;-76
2021/03/14 00:03:41;;;;;;;12.10;1.50;;;;;;;;;;4376009;32;20531;-76
2021/03/14 00:06:06;;;;;;;7.13;1.60;;;;;;;;;;4377139;32;20183;-76
2021/03/14 00:08:32;;;;;;;9.23;1.50;;;;;;;;;;4376165;32;20135;-76
2021/03/14 00:10:59;;;;;;;13.13;2.20;;;;;;;;;;4376652;32;20162;-76
2021/03/14 00:13:35;;;;;;;10.30;1.53;;;;;;;;;;4376589;32;20185;-76
2021/03/14 00:16:02;;;;;;;8.07;1.50;;;;;;;;;;4376653;32;20134;-76
2021/03/14 00:18:49;;;;;;;12.13;2.03;;;;;;;;;;4376164;32;20193;-76
2021/03/14 00:21:16;;;;;;;10.40;2.20;;;;;;;;;;4362676;32;20264;-76
2021/03/14 00:26:46;;;;;;;;;;;;;;;;;;;;;
2021/03/14 00:35:14;;;;;;;16.23;2.03;;;;;;;;;;4374764;32;20238;-76
2021/03/14 00:37:43;;;;;;;10.53;1.93;;;;;;;;;;4376319;32;20173;-76
2021/03/14 00:40:32;;;;;;;11.23;2.00;;;;;;;;;;4376023;32;20214;-76
2021/03/14 00:46:17;;;;;;;9.93;1.67;;;;;;;;;;4329436;33;20139;-76
2021/03/14 00:48:49;;;;;;;10.40;1.73;;;;;;;;;;4325925;33;20623;-76
2021/03/14 00:51:14;;;;;;;10.33;1.70;;;;;;;;;;4364568;32;20178;-76
2021/03/14 00:53:39;;;;;;;6.13;1.80;;;;;;;;;;4361999;32;20196;-76
2021/03/14 00:56:05;;;;;;;11.13;1.80;;;;;;;;;;4375634;32;20442;-76
2021/03/14 00:58:33;;;;;;;15.80;2.30;;;;;;;;;;4375217;32;20153;-76
2021/03/14 01:00:59;;;;;;;13.73;1.67;;;;;;;;;;4375550;32;20218;-76
2021/03/14 01:03:24;;;;;;;13.53;2.07;;;;;;;;;;4375151;32;20171;-76
2021/03/14 01:05:49;;;;;;;9.90;1.87;;;;;;;;;;4375493;32;20639;-76
2021/03/14 01:08:18;;;;;;;12.67;1.80;;;;;;;;;;4375375;32;20467;-76
2021/03/14 01:10:44;;;;;;;11.30;2.10;;;;;;;;;;4362046;32;20163;-77
2021/03/14 01:13:23;;;;;;;15.93;2.67;;;;;;;;;;4361889;32;20520;-77
2021/03/14 01:15:55;;;;;;;9.43;1.87;;;;;;;;;;4375931;32;20553;-76
2021/03/14 01:18:21;;;;;;;13.17;2.33;;;;;;;;;;4375716;32;20165;-76
2021/03/14 01:20:46;;;;;;;14.00;2.20;;;;;;;;;;4375105;32;20475;-76
2021/03/14 01:23:11;;;;;;;9.53;1.60;;;;;;;;;;4375699;32;20128;-77
2021/03/14 01:25:37;;;;;;;11.90;2.33;;;;;;;;;;4375202;32;20153;-76
2021/03/14 01:28:02;;;;;;;15.90;3.00;;;;;;;;;;4375600;32;20504;-76
2021/03/14 01:30:27;;;;;;;13.83;2.03;;;;;;;;;;4375206;32;20200;-76
2021/03/14 01:32:53;;;;;;;12.70;2.37;;;;;;;;;;4374766;32;20474;-77
2021/03/14 01:35:18;;;;;;;8.87;2.27;;;;;;;;;;4374751;32;20170;-77
2021/03/14 01:37:44;;;;;;;13.90;1.77;;;;;;;;;;4375596;32;20169;-77
2021/03/14 01:40:10;;;;;;;13.07;2.17;;;;;;;;;;4375267;32;20560;-77
2021/03/14 01:42:35;;;;;;;10.33;2.10;;;;;;;;;;4375288;32;20138;-77
2021/03/14 01:45:02;;;;;;;8.53;1.83;;;;;;;;;;4374854;32;20135;-76
2021/03/14 01:47:34;;;;;;;9.27;2.00;;;;;;;;;;4374562;32;20139;-77
2021/03/14 01:50:02;;;;;;;11.00;2.00;;;;;;;;;;4375121;32;20510;-77
2021/03/14 01:52:27;;;;;;;12.03;1.90;;;;;;;;;;4375185;32;20217;-77
2021/03/14 01:54:53;;;;;;;9.80;1.80;;;;;;;;;;4363808;32;20134;-76
2021/03/14 01:57:18;;;;;;;9.97;1.90;;;;;;;;;;4346855;32;20551;-77
2021/03/14 01:59:43;;;;;;;8.53;2.10;;;;;;;;;;4375047;32;20198;-77
2021/03/14 02:02:09;;;;;;;10.27;2.10;;;;;;;;;;4371841;32;20200;-77
2021/03/14 02:04:34;;;;;;;13.90;2.20;;;;;;;;;;4360018;33;20135;-77
2021/03/14 02:06:59;;;;;;;11.07;2.30;;;;;;;;;;4346569;33;20495;-77
2021/03/14 02:09:25;;;;;;;8.93;1.77;;;;;;;;;;4360490;33;20566;-77
2021/03/14 02:11:57;;;;;;;11.20;1.50;;;;;;;;;;4360467;33;20144;-77
2021/03/14 02:14:22;;;;;;;8.40;1.90;;;;;;;;;;4360486;33;20154;-77
2021/03/14 02:16:48;;;;;;;13.97;2.00;;;;;;;;;;4361354;33;20128;-77
2021/03/14 02:19:45;;;;;;;13.50;1.90;;;;;;;;;;4373977;32;20266;-77
2021/03/14 02:22:12;;;;;;;6.83;1.60;;;;;;;;;;4368449;32;20592;-77
2021/03/14 02:24:45;;;;;;;12.40;1.80;;;;;;;;;;4374604;32;20139;-77
2021/03/14 02:27:19;;;;;;;12.53;1.97;;;;;;;;;;4374809;32;20156;-77
2021/03/14 02:30:06;;;;;;;8.20;1.83;;;;;;;;;;4375591;32;20216;-77
2021/03/14 02:32:32;;;;;;;10.93;2.03;;;;;;;;;;4374330;32;20177;-76
2021/03/14 02:35:00;;;;;;;13.47;2.50;;;;;;;;;;4374303;32;20200;-77
2021/03/14 02:37:28;;;;;;;11.67;1.93;;;;;;;;;;4374996;32;20139;-76
2021/03/14 02:39:57;;;;;;;9.67;1.70;;;;;;;;;;4374925;32;20607;-77
2021/03/14 02:42:42;;;;;;;10.47;1.70;;;;;;;;;;4374406;32;20134;-76
2021/03/14 02:45:09;;;;;;;7.63;1.93;;;;;;;;;;4375532;32;20143;-77
2021/03/14 02:48:21;;;;;;;10.43;2.33;;;;;;;;;;4374242;32;20528;-76
2021/03/14 02:50:25;;;;;;;16.30;2.20;;;;;;;;;;4369177;32;20193;-77
2021/03/14 02:52:51;;;;;;;10.23;2.47;;;;;;;;;;4374419;32;20143;-77
2021/03/14 02:55:20;;;;;;;13.67;2.00;;;;;;;;;;4375272;32;20130;-77
2021/03/14 02:57:52;;;;;;;15.47;1.80;;;;;;;;;;4374920;32;20139;-77
2021/03/14 03:00:33;;;;;;;13.27;2.30;;;;;;;;;;4377569;32;20135;-77
2021/03/14 03:02:58;;;;;;;13.50;2.00;;;;;;;;;;4377300;32;20192;-76
2021/03/14 03:05:24;;;;;;;10.93;1.87;;;;;;;;;;4377625;32;20188;-77
2021/03/14 03:07:51;;;;;;;8.63;1.83;;;;;;;;;;4376801;32;20218;-77
2021/03/14 03:10:17;;;;;;;10.27;2.33;;;;;;;;;;4377574;32;20161;-77
2021/03/14 03:12:43;;;;;;;6.97;1.83;;;;;;;;;;4377099;32;20197;-77
2021/03/14 03:15:16;;;;;;;12.60;2.03;;;;;;;;;;4377891;32;20135;-77
2021/03/14 03:17:42;;;;;;;11.73;1.87;;;;;;;;;;4377727;32;20161;-77
2021/03/14 03:20:08;;;;;;;13.07;2.00;;;;;;;;;;4376668;32;20135;-77
2021/03/14 03:22:34;;;;;;;11.43;2.17;;;;;;;;;;4377416;32;20139;-76
2021/03/14 03:24:59;;;;;;;11.00;1.73;;;;;;;;;;4376873;32;20177;-76
2021/03/14 03:27:33;;;;;;;11.57;1.73;;;;;;;;;;4376558;32;20154;-76
2021/03/14 03:30:01;;;;;;;11.43;1.73;;;;;;;;;;4375494;32;20505;-76
2021/03/14 03:32:26;;;;;;;9.13;1.60;;;;;;;;;;4377080;32;20497;-76
2021/03/14 03:34:55;;;;;;;8.70;1.47;;;;;;;;;;4377931;32;20206;-77
2021/03/14 03:37:33;;;;;;;10.13;1.83;;;;;;;;;;4381369;32;20214;-77
2021/03/14 03:40:00;;;;;;;8.63;1.63;;;;;;;;;;4374435;32;20240;-77
2021/03/14 03:42:29;;;;;;;8.07;1.90;;;;;;;;;;4376418;32;20151;-77
2021/03/14 03:44:58;;;;;;;9.83;1.73;;;;;;;;;;4376627;32;20432;-77
2021/03/14 03:47:25;;;;;;;6.83;1.57;;;;;;;;;;4376282;32;20186;-77
2021/03/14 03:49:53;;;;;;;14.37;2.13;;;;;;;;;;4362902;32;20210;-77
2021/03/14 03:55:51;;;;;;;;;;;;;;;;;;;;;
2021/03/14 03:58:50;;;;;;;6.03;1.77;;;;;;;;;;4374044;32;20180;-74
2021/03/14 04:01:16;;;;;;;8.63;2.30;;;;;;;;;;4392164;32;20158;-74
2021/03/14 04:03:43;;;;;;;13.20;2.43;;;;;;;;;;4378507;32;20146;-74
2021/03/14 04:06:10;;;;;;;14.37;1.87;;;;;;;;;;4362941;32;20185;-74
2021/03/14 04:08:45;;;;;;;8.40;2.20;;;;;;;;;;4376275;32;20139;-74
2021/03/14 04:11:12;;;;;;;8.20;2.00;;;;;;;;;;4390550;32;20154;-74
2021/03/14 04:20:47;;;;;;;9.83;2.33;;;;;;;;;;4343926;33;20155;-74
2021/03/14 04:23:37;;;;;;;8.73;2.30;;;;;;;;;;4330291;33;20152;-75
2021/03/14 04:26:47;;;;;;;6.87;2.53;;;;;;;;;;4329651;33;20144;-74
2021/03/14 04:29:02;;;;;;;10.13;2.53;;;;;;;;;;4344853;32;20195;-74
2021/03/14 04:31:46;;;;;;;6.60;2.10;;;;;;;;;;4391226;32;20138;-74
2021/03/14 04:34:13;;;;;;;6.50;2.13;;;;;;;;;;4361088;32;20174;-74
2021/03/14 04:36:39;;;;;;;9.30;2.17;;;;;;;;;;4370555;32;20201;-74
2021/03/14 04:39:05;;;;;;;8.60;2.20;;;;;;;;;;4375536;32;20177;-74
2021/03/14 04:41:35;;;;;;;11.80;2.30;;;;;;;;;;4375537;32;20146;-74
2021/03/14 04:44:00;;;;;;;12.23;2.40;;;;;;;;;;4375512;32;20138;-74
2021/03/14 04:46:26;;;;;;;13.70;2.53;;;;;;;;;;4375986;32;20165;-74
2021/03/14 04:48:54;;;;;;;12.03;2.03;;;;;;;;;;4375627;32;20210;-74
2021/03/14 04:51:20;;;;;;;10.87;2.33;;;;;;;;;;4375361;32;20158;-74
2021/03/14 04:53:46;;;;;;;7.83;1.83;;;;;;;;;;4375681;32;20142;-74
2021/03/14 04:56:12;;;;;;;8.40;1.87;;;;;;;;;;4381427;32;20503;-74
2021/03/14 04:58:38;;;;;;;16.00;2.23;;;;;;;;;;4381908;32;20157;-74
2021/03/14 05:01:03;;;;;;;10.50;1.83;;;;;;;;;;4375535;32;20143;-74
2021/03/14 05:03:29;;;;;;;10.77;2.00;;;;;;;;;;4385729;32;20173;-74
2021/03/14 05:05:55;;;;;;;11.57;2.10;;;;;;;;;;4390629;32;20171;-73
2021/03/14 05:08:47;;;;;;;;;;;;;;;;;;;;;
2021/03/14 05:11:25;;;;;;;12.20;2.00;;;;;;;;;;4389900;32;20177;-73
2021/03/14 05:16:37;;;;;;;7.60;2.10;;;;;;;;;;4384224;32;20249;-73
2021/03/14 05:19:03;;;;;;;10.77;2.03;;;;;;;;;;4389987;32;20146;-73
2021/03/14 05:21:40;;;;;;;8.63;1.97;;;;;;;;;;4389887;32;20145;-73
2021/03/14 05:27:22;;;;;;;14.50;2.40;;;;;;;;;;4284595;33;20164;-73
2021/03/14 05:30:12;;;;;;;7.43;2.33;;;;;;;;;;4285144;33;20227;-73
2021/03/14 05:32:38;;;;;;;12.83;2.43;;;;;;;;;;4370532;32;20154;-73
2021/03/14 05:35:03;;;;;;;9.60;2.80;;;;;;;;;;4374727;32;20193;-73
2021/03/14 05:37:28;;;;;;;18.30;2.50;;;;;;;;;;4375417;32;20139;-74
2021/03/14 05:39:53;;;;;;;17.43;3.10;;;;;;;;;;4375304;32;20173;-73
2021/03/14 05:42:19;;;;;;;12.60;2.53;;;;;;;;;;4375114;32;20139;-73
2021/03/14 05:44:45;;;;;;;13.00;2.73;;;;;;;;;;4375194;32;20226;-74
2021/03/14 05:47:11;;;;;;;15.37;2.50;;;;;;;;;;4375573;32;20266;-73
2021/03/14 05:49:39;;;;;;;11.57;2.90;;;;;;;;;;4375100;32;20142;-74
2021/03/14 05:52:05;;;;;;;10.90;2.60;;;;;;;;;;4375059;32;20182;-74
2021/03/14 05:54:36;;;;;;;10.40;2.70;;;;;;;;;;4375038;32;20138;-75
2021/03/14 05:57:02;;;;;;;11.60;2.30;;;;;;;;;;4375301;32;20473;-74
2021/03/14 05:59:29;;;;;;;8.67;2.10;;;;;;;;;;4359737;33;20139;-74
2021/03/14 06:01:55;;;;;;;10.03;2.40;;;;;;;;;;4360193;33;20198;-73
2021/03/14 06:04:21;;;;;;;12.87;2.50;;;;;;;;;;4374288;32;20186;-74
2021/03/14 06:06:46;;;;;;;12.50;2.63;;;;;;;;;;4374958;32;20139;-74
2021/03/14 06:09:15;;;;;;;8.87;2.40;;;;;;;;;;4374775;32;20134;-74
2021/03/14 06:11:41;;;;;;;10.33;2.73;;;;;;;;;;4375368;32;20165;-74
2021/03/14 06:14:15;;;;;;;14.27;3.30;;;;;;;;;;4376121;32;20444;-74
2021/03/14 06:16:40;;;;;;;11.03;2.90;;;;;;;;;;4375546;32;20130;-74
2021/03/14 06:19:06;;;;;;;7.97;3.43;;;;;;;;;;4375005;32;20173;-74
2021/03/14 06:21:33;;;;;;;10.13;2.60;;;;;;;;;;4375019;32;20131;-73
2021/03/14 06:27:02;;;;;;;6.77;2.53;;;;;;;;;;4375530;32;20440;-74
2021/03/14 06:32:19;;;;;;;9.63;2.90;;;;;;;;;;4366189;32;20158;-74
2021/03/14 06:34:44;;;;;;;19.17;4.07;;;;;;;;;;4371354;32;20671;-74
2021/03/14 06:37:14;;;;;;;8.77;2.97;;;;;;;;;;4362827;33;20135;-74
2021/03/14 06:39:50;;;;;;;12.57;4.10;;;;;;;;;;4362535;33;20197;-74
2021/03/14 06:42:31;;;;;;;9.17;2.87;;;;;;;;;;4362246;33;20139;-74
2021/03/14 06:45:10;;;;;;;16.37;3.60;;;;;;;;;;4362807;32;20497;-74
2021/03/14 06:47:40;;;;;;;13.53;4.00;;;;;;;;;;4362233;32;20507;-74
2021/03/14 06:50:25;;;;;;;14.07;4.13;;;;;;;;;;4362663;32;20139;-74
2021/03/14 06:53:10;;;;;;;12.50;4.23;;;;;;;;;;4356310;32;20257;-74
2021/03/14 06:55:41;;;;;;;10.60;4.63;;;;;;;;;;4377497;32;20479;-74
2021/03/14 06:58:24;;;;;;;15.30;4.47;;;;;;;;;;4376988;32;20147;-74
2021/03/14 07:01:42;;;;;;;15.23;5.13;;;;;;;;;;4377522;32;20506;-75
2021/03/14 07:04:00;;;;;;;14.13;4.40;;;;;;;;;;4374843;32;20174;-74
2021/03/14 07:06:26;;;;;;;14.27;4.93;;;;;;;;;;4377412;32;20157;-74
2021/03/14 07:08:57;;;;;;;12.93;5.23;;;;;;;;;;4363255;32;20170;-74
2021/03/14 07:11:41;;;;;;;16.27;4.97;;;;;;;;;;4363454;32;20637;-74
2021/03/14 07:14:24;;;;;;;10.73;5.20;;;;;;;;;;4363465;32;20171;-74
2021/03/14 07:16:50;;;;;;;15.87;5.60;;;;;;;;;;4363167;32;20182;-74
2021/03/14 07:19:19;;;;;;;15.73;5.43;;;;;;;;;;4377428;32;20571;-74
2021/03/14 07:22:08;;;;;;;13.97;5.77;;;;;;;;;;4377064;32;20200;-75
2021/03/14 07:25:00;;;;;;;15.73;5.40;;;;;;;;;;4376770;32;20143;-75
2021/03/14 07:27:33;;;;;;;14.73;5.67;;;;;;;;;;4370826;32;20178;-74
2021/03/14 07:29:59;;;;;;;18.73;5.90;;;;;;;;;;4376835;32;20177;-75
2021/03/14 07:32:53;;;;;;;12.23;4.33;;;;;;;;;;4376067;32;20189;-74
2021/03/14 07:35:19;;;;;;;10.47;4.63;;;;;;;;;;4380276;32;20617;-75
2021/03/14 07:37:54;;;;;;;14.47;4.63;;;;;;;;;;4391843;32;20197;-74
2021/03/14 07:40:21;;;;;;;17.60;5.27;;;;;;;;;;4392272;32;20154;-74
2021/03/14 07:42:49;;;;;;;13.87;4.60;;;;;;;;;;4391387;32;20153;-75
2021/03/14 07:45:15;;;;;;;13.53;4.60;;;;;;;;;;4391014;32;20293;-75
2021/03/14 07:47:51;;;;;;;10.50;4.83;;;;;;;;;;4391517;32;20138;-74
2021/03/14 07:50:18;;;;;;;10.63;5.07;;;;;;;;;;4391707;32;20590;-74
2021/03/14 07:52:43;;;;;;;10.67;4.03;;;;;;;;;;4391782;32;20195;-76
2021/03/14 07:55:12;;;;;;;13.30;4.77;;;;;;;;;;4391428;32;20170;-75
2021/03/14 07:58:07;;;;;;;11.77;4.43;;;;;;;;;;4391120;32;20154;-75
2021/03/14 08:00:40;;;;;;;15.40;4.77;;;;;;;;;;4389531;32;20190;-75
2021/03/14 08:03:06;;;;;;;13.87;4.23;;;;;;;;;;4379936;32;20195;-75
2021/03/14 08:05:51;;;;;;;10.10;3.87;;;;;;;;;;4376132;32;20147;-75
2021/03/14 08:08:52;;;;;;;13.63;4.00;;;;;;;;;;4376299;32;20210;-75
2021/03/14 08:11:30;;;;;;;11.23;3.70;;;;;;;;;;4376417;32;20187;-74
2021/03/14 08:14:01;;;;;;;10.03;3.30;;;;;;;;;;4376397;32;20176;-75
2021/03/14 08:16:27;;;;;;;10.80;3.10;;;;;;;;;;4375926;32;20158;-75
2021/03/14 08:22:00;;;;;;;13.97;2.77;;;;;;;;;;4377203;32;20193;-74
2021/03/14 08:24:31;;;;;;;10.40;3.23;;;;;;;;;;4375687;32;20158;-75
2021/03/14 08:27:05;;;;;;;12.17;3.53;;;;;;;;;;4376766;32;20481;-74
2021/03/14 08:29:40;;;;;;;16.23;2.90;;;;;;;;;;4376145;32;20147;-75
2021/03/14 08:32:19;;;;;;;13.10;3.10;;;;;;;;;;4376100;32;20189;-74
2021/03/14 08:34:45;;;;;;;13.77;3.12;;;;;;;;;;4376167;32;20213;-74
2021/03/14 08:37:31;;;;;;;10.37;3.30;;;;;;;;;;4375910;32;20147;-75
2021/03/14 08:40:04;;;;;;;10.27;2.90;;;;;;;;;;4375700;32;20173;-75
2021/03/14 08:42:48;;;;;;;8.80;2.70;;;;;;;;;;4375652;32;20163;-76
2021/03/14 08:45:23;;;;;;;9.03;3.23;;;;;;;;;;4375971;32;20201;-75
2021/03/14 08:47:49;;;;;;;10.37;2.53;;;;;;;;;;4375708;32;20169;-76
2021/03/14 08:50:15;;;;;;;6.93;2.20;;;;;;;;;;4375615;32;20179;-77
2021/03/14 08:52:40;;;;;;;9.23;3.40;;;;;;;;;;4375930;32;20465;-75
2021/03/14 08:55:11;;;;;;;9.00;3.00;;;;;;;;;;4375546;32;20142;-74
2021/03/14 08:57:36;;;;;;;12.43;2.60;;;;;;;;;;4375696;32;20162;-74
2021/03/14 09:00:04;;;;;;;15.77;2.87;;;;;;;;;;4372540;32;20154;-75
2021/03/14 09:02:38;;;;;;;11.77;2.83;;;;;;;;;;4373157;32;20158;-75
2021/03/14 09:05:17;;;;;;;11.43;3.27;;;;;;;;;;4378142;32;20150;-73
2021/03/14 09:07:43;;;;;;;11.23;2.97;;;;;;;;;;4387930;32;20150;-75
2021/03/14 09:10:12;;;;;;;6.90;2.07;;;;;;;;;;4390911;32;20212;-76
2021/03/14 09:12:43;;;;;;;8.40;2.63;;;;;;;;;;4390641;32;20571;-75
2021/03/14 09:15:09;;;;;;;7.33;2.23;;;;;;;;;;4390766;32;20139;-74
2021/03/14 09:17:41;;;;;;;11.10;2.67;;;;;;;;;;4390352;32;20238;-74
2021/03/14 09:20:07;;;;;;;7.30;2.67;;;;;;;;;;4361865;32;20175;-76
2021/03/14 09:22:36;;;;;;;8.40;2.50;;;;;;;;;;4374862;32;20182;-73
2021/03/14 09:25:02;;;;;;;9.33;3.10;;;;;;;;;;4374597;32;20546;-74
2021/03/14 09:27:28;;;;;;;10.73;3.03;;;;;;;;;;4374806;32;20169;-74
2021/03/14 09:29:58;;;;;;;8.33;2.57;;;;;;;;;;4374575;32;20147;-75
2021/03/14 09:32:36;;;;;;;11.50;2.43;;;;;;;;;;4374541;32;20181;-74
2021/03/14 09:35:10;;;;;;;9.13;2.40;;;;;;;;;;4374831;32;20344;-73
2021/03/14 09:37:39;;;;;;;8.77;2.60;;;;;;;;;;4374528;32;20142;-74
2021/03/14 09:40:09;;;;;;;11.90;2.90;;;;;;;;;;4374442;32;20367;-76
2021/03/14 09:42:37;;;;;;;8.90;2.00;;;;;;;;;;4361772;32;20159;-75
2021/03/14 09:48:27;;;;;;;11.77;2.60;;;;;;;;;;4374895;32;20623;-77
2021/03/14 09:50:53;;;;;;;15.80;2.90;;;;;;;;;;4374493;32;20134;-77
2021/03/14 09:53:28;;;;;;;11.40;2.90;;;;;;;;;;4374610;32;20127;-76
2021/03/14 09:55:55;;;;;;;9.00;2.10;;;;;;;;;;4374892;32;20192;-77
2021/03/14 09:58:27;;;;;;;10.55;2.90;;;;;;;;;;4374530;32;20139;-76
2021/03/14 10:00:54;;;;;;;10.77;2.67;;;;;;;;;;4374748;32;20229;-77
2021/03/14 10:03:23;;;;;;;8.97;2.70;;;;;;;;;;4361741;32;20163;-77
2021/03/14 10:05:49;;;;;;;13.73;3.03;;;;;;;;;;4361346;32;20174;-75
2021/03/14 10:08:16;;;;;;;7.33;2.17;;;;;;;;;;4377439;32;20185;-76
2021/03/14 10:10:41;;;;;;;11.50;2.23;;;;;;;;;;4377686;32;20139;-77
2021/03/14 10:13:07;;;;;;;11.97;2.20;;;;;;;;;;4392575;32;20130;-78
2021/03/14 10:15:33;;;;;;;8.50;2.03;;;;;;;;;;4376835;32;20150;-76
2021/03/14 10:18:20;;;;;;;8.97;2.13;;;;;;;;;;4362914;32;20183;-74
2021/03/14 10:20:44;;;;;;;8.70;2.47;;;;;;;;;;4372962;32;20180;-75
2021/03/14 10:23:10;;;;;;;7.87;1.90;;;;;;;;;;4377438;32;20527;-76
2021/03/14 10:25:38;;;;;;;9.97;2.17;;;;;;;;;;4377272;32;20134;-75
2021/03/14 10:28:23;;;;;;;10.57;2.25;;;;;;;;;;4377137;32;20205;-75
2021/03/14 10:30:48;;;;;;;11.98;2.20;;;;;;;;;;4376853;32;20139;-75
2021/03/14 10:33:49;;;;;;;9.88;2.50;;;;;;;;;;4368577;32;21003;-76
2021/03/14 10:36:18;;;;;;;9.60;2.00;;;;;;;;;;4373689;32;20615;-78
2021/03/14 10:38:44;;;;;;;9.32;2.42;;;;;;;;;;4363141;32;20151;-76
2021/03/14 10:41:28;;;;;;;10.48;2.33;;;;;;;;;;4376931;32;20200;-76
2021/03/14 10:43:55;;;;;;;8.20;1.87;;;;;;;;;;4376685;32;20127;-75
2021/03/14 10:46:35;;;;;;;10.83;2.23;;;;;;;;;;4377105;32;20450;-76
2021/03/14 10:49:11;;;;;;;11.90;2.00;;;;;;;;;;4376675;32;20130;-76
2021/03/14 10:51:38;;;;;;;6.53;1.52;;;;;;;;;;4374963;32;20192;-76
2021/03/14 10:54:13;;;;;;;8.35;1.87;;;;;;;;;;4363203;32;20159;-77
2021/03/14 10:56:39;;;;;;;9.10;1.90;;;;;;;;;;4379330;32;20138;-76
2021/03/14 10:59:24;;;;;;;9.63;1.73;;;;;;;;;;4388181;32;20205;-76
2021/03/14 11:01:56;;;;;;;9.02;1.90;;;;;;;;;;4372287;32;20151;-77
2021/03/14 11:04:33;;;;;;;10.27;2.20;;;;;;;;;;4373183;32;20213;-78
2021/03/14 11:06:58;;;;;;;7.75;2.25;;;;;;;;;;4372644;32;20150;-77
2021/03/14 11:09:27;;;;;;;5.00;1.83;;;;;;;;;;4359385;32;20185;-77
2021/03/14 11:11:52;;;;;;;9.47;2.10;;;;;;;;;;4373123;32;20180;-78
2021/03/14 11:14:41;;;;;;;8.82;2.20;;;;;;;;;;4362317;32;20580;-76
2021/03/14 11:17:39;;;;;;;7.53;2.15;;;;;;;;;;4375819;32;20168;-76
2021/03/14 11:20:05;;;;;;;9.10;2.27;;;;;;;;;;4369793;32;20213;-77
2021/03/14 11:22:30;;;;;;;11.93;2.40;;;;;;;;;;4376855;32;20131;-77
2021/03/14 11:24:56;;;;;;;11.68;2.20;;;;;;;;;;4376375;32;20248;-77
2021/03/14 11:27:21;;;;;;;10.40;2.90;;;;;;;;;;4362677;32;20185;-77
2021/03/14 11:29:46;;;;;;;9.83;3.27;;;;;;;;;;4376051;32;20205;-75
2021/03/14 11:32:16;;;;;;;10.38;2.87;;;;;;;;;;4376068;32;20126;-76
2021/03/14 11:34:42;;;;;;;6.80;2.40;;;;;;;;;;4375763;32;20563;-77
2021/03/14 11:37:07;;;;;;;5.85;1.62;;;;;;;;;;4360681;32;20231;-78
2021/03/14 11:39:33;;;;;;;13.30;2.03;;;;;;;;;;4355093;32;20554;-77
2021/03/14 11:41:58;;;;;;;8.07;1.95;;;;;;;;;;4359347;32;20479;-77
2021/03/14 11:44:23;;;;;;;16.15;2.30;;;;;;;;;;4351105;33;20158;-77
2021/03/14 11:46:48;;;;;;;10.60;2.20;;;;;;;;;;4361166;32;20139;-76
2021/03/14 11:49:14;;;;;;;6.07;1.95;;;;;;;;;;4361421;32;20590;-78
2021/03/14 11:51:39;;;;;;;10.93;2.20;;;;;;;;;;4359992;33;20611;-78
2021/03/14 11:54:05;;;;;;;7.78;2.08;;;;;;;;;;4344716;32;20207;-77
2021/03/14 11:56:30;;;;;;;9.85;1.85;;;;;;;;;;4351018;33;20177;-77
2021/03/14 11:58:58;;;;;;;10.52;2.30;;;;;;;;;;4361447;32;20208;-77
2021/03/14 12:01:26;;;;;;;5.17;1.83;;;;;;;;;;4333126;33;20555;-79
2021/03/14 12:03:52;;;;;;;9.43;2.03;;;;;;;;;;4332353;33;20190;-78
2021/03/14 12:06:17;;;;;;;10.10;1.92;;;;;;;;;;4346397;33;20131;-77
2021/03/14 12:08:42;;;;;;;8.27;1.77;;;;;;;;;;4345998;33;20181;-77
2021/03/14 12:11:08;;;;;;;14.87;2.17;;;;;;;;;;4344659;33;20160;-75
2021/03/14 12:13:34;;;;;;;10.95;2.85;;;;;;;;;;4345788;33;20147;-77
2021/03/14 12:15:59;;;;;;;9.50;2.08;;;;;;;;;;4345838;33;20185;-77
2021/03/14 12:18:24;;;;;;;6.50;1.30;;;;;;;;;;4356464;32;20178;-78
2021/03/14 12:20:50;;;;;;;9.75;1.60;;;;;;;;;;4360671;33;20135;-76
2021/03/14 12:23:17;;;;;;;7.05;1.55;;;;;;;;;;4347098;33;20159;-77
2021/03/14 12:25:42;;;;;;;10.37;1.80;;;;;;;;;;4360220;32;20182;-79
2021/03/14 12:28:07;;;;;;;7.17;1.80;;;;;;;;;;4346630;33;20152;-72
2021/03/14 12:30:33;;;;;;;8.10;1.55;;;;;;;;;;4361267;32;20503;-81
2021/03/14 12:32:58;;;;;;;9.67;2.03;;;;;;;;;;4360404;32;20479;-79
2021/03/14 12:35:34;;;;;;;8.30;1.87;;;;;;;;;;4348486;33;20200;-80
2021/03/14 12:38:02;;;;;;;10.18;2.17;;;;;;;;;;4361518;32;20180;-80
2021/03/14 12:40:27;;;;;;;9.97;1.60;;;;;;;;;;4374787;32;20230;-76
2021/03/14 12:42:55;;;;;;;12.57;1.90;;;;;;;;;;4375730;32;20218;-80
2021/03/14 12:45:22;;;;;;;8.83;1.73;;;;;;;;;;4374983;32;20131;-80
2021/03/14 12:47:47;;;;;;;10.20;2.03;;;;;;;;;;4374855;32;20181;-80
2021/03/14 12:50:13;;;;;;;9.93;1.90;;;;;;;;;;4374137;32;20135;-80
2021/03/14 12:52:41;;;;;;;9.77;2.10;;;;;;;;;;4361256;32;20614;-81
2021/03/14 12:55:06;;;;;;;11.00;2.20;;;;;;;;;;4361392;32;20220;-81
2021/03/14 12:57:32;;;;;;;11.97;1.77;;;;;;;;;;4361247;32;20158;-81
2021/03/14 12:59:57;;;;;;;11.25;1.85;;;;;;;;;;4361179;32;20197;-80
2021/03/14 13:02:28;;;;;;;12.57;1.90;;;;;;;;;;4361279;32;20661;-80
2021/03/14 13:05:03;;;;;;;10.73;1.90;;;;;;;;;;4361452;32;20154;-81
2021/03/14 13:07:29;;;;;;;14.87;2.27;;;;;;;;;;4362505;32;20146;-80
2021/03/14 13:09:54;;;;;;;13.82;1.90;;;;;;;;;;4362111;32;20190;-79
2021/03/14 13:12:19;;;;;;;13.27;1.98;;;;;;;;;;4360990;32;20158;-78
2021/03/14 13:14:44;;;;;;;11.25;1.92;;;;;;;;;;4361002;32;20549;-80
2021/03/14 13:17:10;;;;;;;8.50;1.57;;;;;;;;;;4372052;32;20214;-81
2021/03/14 13:19:38;;;;;;;8.20;1.77;;;;;;;;;;4358744;32;20197;-80
2021/03/14 13:22:03;;;;;;;9.47;2.20;;;;;;;;;;4359893;32;20222;-82
2021/03/14 13:24:28;;;;;;;11.67;2.13;;;;;;;;;;4359014;32;20495;-83
2021/03/14 13:26:54;;;;;;;13.43;2.00;;;;;;;;;;4358736;32;20190;-81
2021/03/14 13:29:19;;;;;;;7.03;1.55;;;;;;;;;;4372668;32;20140;-81
2021/03/14 13:31:44;;;;;;;15.05;2.25;;;;;;;;;;4361208;32;20246;-80
2021/03/14 13:34:09;;;;;;;9.55;1.77;;;;;;;;;;4360951;32;20502;-80
2021/03/14 13:36:35;;;;;;;4.57;1.25;;;;;;;;;;4360221;32;20598;-81
2021/03/14 13:39:00;;;;;;;18.12;2.10;;;;;;;;;;4360906;32;20622;-81
2021/03/14 13:41:28;;;;;;;7.62;1.67;;;;;;;;;;4360726;32;20444;-82
2021/03/14 13:43:54;;;;;;;11.43;1.73;;;;;;;;;;4361143;32;20189;-80
2021/03/14 13:46:20;;;;;;;11.32;1.80;;;;;;;;;;4374590;32;20127;-80
2021/03/14 13:48:45;;;;;;;12.88;1.85;;;;;;;;;;4360716;32;20530;-81
2021/03/14 13:51:13;;;;;;;11.68;1.67;;;;;;;;;;4360751;32;20155;-80
2021/03/14 13:53:39;;;;;;;6.87;1.30;;;;;;;;;;4355822;32;20198;-81
2021/03/14 13:56:05;;;;;;;8.45;1.50;;;;;;;;;;4373339;32;20668;-81
2021/03/14 13:58:30;;;;;;;8.82;1.90;;;;;;;;;;4360963;32;20242;-79
2021/03/14 14:00:55;;;;;;;11.90;1.87;;;;;;;;;;4374687;32;20142;-80
2021/03/14 14:03:21;;;;;;;15.40;1.80;;;;;;;;;;4359281;32;20159;-82
2021/03/14 14:05:49;;;;;;;9.07;1.60;;;;;;;;;;4360759;32;20155;-82
2021/03/14 14:08:14;;;;;;;7.20;1.77;;;;;;;;;;4360561;32;20304;-81
2021/03/14 14:10:40;;;;;;;12.13;1.80;;;;;;;;;;4360523;32;20224;-80
2021/03/14 14:13:05;;;;;;;9.93;1.77;;;;;;;;;;4361405;32;20150;-81
2021/03/14 14:15:31;;;;;;;4.37;1.25;;;;;;;;;;4360463;32;20449;-80
2021/03/14 14:17:56;;;;;;;9.90;2.10;;;;;;;;;;4360485;32;20147;-81
2021/03/14 14:20:21;;;;;;;7.25;1.52;;;;;;;;;;4360758;32;20201;-80
2021/03/14 14:22:47;;;;;;;7.97;1.70;;;;;;;;;;4360938;32;20163;-80
2021/03/14 14:25:16;;;;;;;16.58;2.30;;;;;;;;;;4374454;32;20526;-80
2021/03/14 14:27:46;;;;;;;8.05;1.52;;;;;;;;;;4373855;32;20159;-81
2021/03/14 14:30:16;;;;;;;8.07;1.52;;;;;;;;;;4375250;32;20119;-81
2021/03/14 14:32:42;;;;;;;9.15;1.80;;;;;;;;;;4360565;32;20200;-80
2021/03/14 14:35:07;;;;;;;9.95;1.30;;;;;;;;;;4360833;32;20287;-80
2021/03/14 14:37:38;;;;;;;11.68;2.15;;;;;;;;;;4360869;32;20178;-80
2021/03/14 14:40:10;;;;;;;10.82;1.70;;;;;;;;;;4374498;32;20147;-79
2021/03/14 14:42:36;;;;;;;9.38;1.37;;;;;;;;;;4360669;32;20235;-80
2021/03/14 14:45:05;;;;;;;4.87;1.35;;;;;;;;;;4360270;32;20154;-80
2021/03/14 14:47:30;;;;;;;7.82;1.60;;;;;;;;;;4357463;33;20155;-80
2021/03/14 14:49:57;;;;;;;12.05;1.62;;;;;;;;;;4359825;32;20157;-79
2021/03/14 14:52:22;;;;;;;14.73;2.00;;;;;;;;;;4358309;33;20219;-79
2021/03/14 14:54:57;;;;;;;18.02;2.40;;;;;;;;;;4359953;32;20167;-79
2021/03/14 14:57:25;;;;;;;7.82;1.55;;;;;;;;;;4361161;32;20162;-80
2021/03/14 14:59:50;;;;;;;7.35;1.33;;;;;;;;;;4362435;32;20147;-79
2021/03/14 15:02:15;;;;;;;11.77;1.73;;;;;;;;;;4360566;32;20154;-79
2021/03/14 15:04:49;;;;;;;15.23;2.37;;;;;;;;;;4362071;32;20485;-81
2021/03/14 15:07:14;;;;;;;7.93;1.60;;;;;;;;;;4360554;32;20170;-79
2021/03/14 15:10:05;;;;;;;;;;;;;;;;;;;;;
2021/03/14 15:12:31;;;;;;;10.57;1.92;;;;;;;;;;4362176;32;20158;-79
2021/03/14 15:15:06;;;;;;;11.15;2.10;;;;;;;;;;4360521;32;20155;-80
2021/03/14 15:17:31;;;;;;;11.50;2.65;;;;;;;;;;4350639;32;20630;-80
2021/03/14 15:20:06;;;;;;;;;;;;;;;;;;;;;
2021/03/14 15:22:32;;;;;;;10.90;2.03;;;;;;;;;;4367517;32;20487;-79
2021/03/14 15:24:58;;;;;;;6.95;1.62;;;;;;;;;;4363224;32;20185;-81
2021/03/14 15:27:23;;;;;;;10.82;2.15;;;;;;;;;;4362661;32;20614;-82
2021/03/14 15:29:51;;;;;;;12.45;1.90;;;;;;;;;;4363577;32;20229;-82
2021/03/14 15:32:16;;;;;;;10.27;1.92;;;;;;;;;;4376978;32;20130;-80
2021/03/14 15:34:43;;;;;;;11.15;1.70;;;;;;;;;;4363172;32;20154;-80
2021/03/14 15:37:08;;;;;;;10.75;2.22;;;;;;;;;;4374636;32;20556;-80